»·PEaware :: N905DJ KSGU-KEAT

N905DJ :: KSGU-KEAT

FLIGHT INFORMATION

Flight Status: Arrived
Operator: Privately registered:
United States
More flights under this callsign
Pilot: Drew L. (13237)
Aircraft: BOEING 737-800
(B738)
More flights by this aircraft type
Origin: KSGU St George Mun
United States
Destination: KEAT Pangborn Meml
United States
More flights between these airports :: More routes between these airports
Route: HIVKA2 URIAH ILC V293 BQU BKE PSC
File this flight plan on PilotEdge
Remarks: PBN / A1B1C1D1S1S2 DOF / 181006 REG / N806SB EET / KZLC0013 KZSE0119 PER / C RMK / TCAS SIMBRIEF
Altitude:
(Current/Filed)
34,000ft
Speed:
(Current/Filed)
445kts
Departed: 05-Oct-18 08:09 PM
Arrived: 05-Oct-18 10:06 PM
Distance/Time
Traveled:
684nm/1:57
Distance/Time
To Go:
Arrived

Flight Plot

Page will automatically refresh every two minutes.

Flight plan parsing failed; only flown route is shown


Map Options




Map Legend


Flown Route
Filed Route
Departure Airport
Arrival Airport
Navaid (VOR, NDB)
Fix

Horizontal Profiles

Position Reports

Time Latitude Longitude Heading Altitude Ground
Speed
05-Oct-18 19:52 37.037934 -113.505835 112 2860ft 0kts
05-Oct-18 19:53 37.037934 -113.505835 112 2860ft 0kts
05-Oct-18 19:54 37.037934 -113.505835 112 2860ft 0kts
05-Oct-18 19:55 37.037934 -113.505835 112 2860ft 0kts
05-Oct-18 19:56 37.037934 -113.505835 112 2860ft 0kts
05-Oct-18 19:57 37.037934 -113.505835 112 2860ft 0kts
05-Oct-18 19:58 37.037934 -113.505835 112 2860ft 0kts
05-Oct-18 19:59 37.037934 -113.505835 112 2860ft 0kts
05-Oct-18 20:00 37.037934 -113.505835 112 2860ft 0kts
05-Oct-18 20:01 37.037934 -113.505835 112 2860ft 0kts
05-Oct-18 20:02 37.037934 -113.505835 112 2860ft 0kts
05-Oct-18 20:03 37.037934 -113.505835 112 2860ft 0kts
05-Oct-18 20:04 37.037934 -113.505835 112 2860ft 0kts
05-Oct-18 20:05 37.037934 -113.505835 112 2860ft 0kts
05-Oct-18 20:06 37.037599 -113.505823 223 2860ft 11kts
05-Oct-18 20:07 37.033914 -113.509361 202 2860ft 23kts
05-Oct-18 20:08 37.032526 -113.510109 23 2860ft 25kts
05-Oct-18 20:09 37.041685 -113.505256 22 2860ft 34kts
05-Oct-18 20:10 37.047797 -113.504134 238 2860ft 18kts
05-Oct-18 20:11 37.019085 -113.519772 202 3386ft 183kts
05-Oct-18 20:12 36.994745 -113.565412 301 5721ft 182kts
05-Oct-18 20:13 37.040024 -113.568842 29 7837ft 212kts
05-Oct-18 20:14 37.099789 -113.534165 18 9394ft 279kts
05-Oct-18 20:15 37.179777 -113.546471 325 11370ft 320kts
05-Oct-18 20:16 37.251958 -113.614748 329 14234ft 334kts
05-Oct-18 20:17 37.342441 -113.648984 343 17079ft 348kts
05-Oct-18 20:18 37.437190 -113.680619 342 19675ft 359kts
05-Oct-18 20:19 37.529155 -113.727045 322 22044ft 362kts
05-Oct-18 20:20 37.611623 -113.802918 321 24193ft 372kts
05-Oct-18 20:21 37.695443 -113.880653 321 26172ft 379kts
05-Oct-18 20:22 37.781247 -113.960174 321 27943ft 387kts
05-Oct-18 20:23 37.868643 -114.041120 321 29615ft 393kts
05-Oct-18 20:24 37.955830 -114.121816 321 31567ft 387kts
05-Oct-18 20:25 38.041829 -114.201383 321 33373ft 379kts
05-Oct-18 20:26 38.126448 -114.279681 321 34130ft 392kts
05-Oct-18 20:27 38.217375 -114.363747 321 34128ft 416kts
05-Oct-18 20:28 38.323220 -114.425419 337 34124ft 423kts
05-Oct-18 20:29 38.434136 -114.473083 337 34124ft 423kts
05-Oct-18 20:30 38.545417 -114.521010 337 34123ft 423kts
05-Oct-18 20:31 38.656463 -114.568835 337 34122ft 423kts
05-Oct-18 20:32 38.767522 -114.616663 337 34122ft 423kts
05-Oct-18 20:33 38.878509 -114.664595 337 34128ft 423kts
05-Oct-18 20:34 38.990178 -114.713310 336 34130ft 431kts
05-Oct-18 20:35 39.104438 -114.763262 336 34127ft 436kts
05-Oct-18 20:36 39.218758 -114.813373 336 34130ft 435kts
05-Oct-18 20:37 39.331543 -114.867727 329 34135ft 431kts
05-Oct-18 20:38 39.439354 -114.934596 330 34128ft 431kts
05-Oct-18 20:39 39.547228 -115.000711 330 34128ft 431kts
05-Oct-18 20:40 39.654749 -115.066944 330 34127ft 426kts
05-Oct-18 20:41 39.761076 -115.132704 330 34126ft 423kts
05-Oct-18 20:42 39.866371 -115.198204 330 34124ft 419kts
05-Oct-18 20:43 39.971312 -115.263485 330 34118ft 419kts
05-Oct-18 20:44 40.076434 -115.328857 330 34097ft 419kts
05-Oct-18 20:45 40.181303 -115.394059 330 34089ft 419kts
05-Oct-18 20:46 40.285972 -115.459998 330 34088ft 419kts
05-Oct-18 20:47 40.391083 -115.526278 330 34087ft 419kts
05-Oct-18 20:48 40.495623 -115.592874 330 34086ft 419kts
05-Oct-18 20:49 40.599892 -115.659273 329 34092ft 419kts
05-Oct-18 20:50 40.704363 -115.725968 330 34092ft 419kts
05-Oct-18 20:51 40.811406 -115.786676 335 34090ft 422kts
05-Oct-18 20:52 40.920637 -115.841160 334 34091ft 421kts
05-Oct-18 20:53 41.030492 -115.896394 334 34091ft 426kts
05-Oct-18 20:54 41.140477 -115.951678 334 34093ft 436kts
05-Oct-18 20:55 41.234625 -115.999000 334 34091ft 434kts
05-Oct-18 20:56 41.365923 -116.065001 334 34091ft 434kts
05-Oct-18 20:57 41.478693 -116.121678 334 34090ft 434kts
05-Oct-18 20:58 41.591584 -116.178412 335 34090ft 434kts
05-Oct-18 20:59 41.685419 -116.225564 335 34089ft 434kts
05-Oct-18 21:00 41.817357 -116.291854 335 34085ft 434kts
05-Oct-18 21:01 41.911383 -116.339090 335 34071ft 434kts
05-Oct-18 21:02 42.024123 -116.395721 335 34061ft 434kts
05-Oct-18 21:03 42.136763 -116.452295 335 34061ft 434kts
05-Oct-18 21:04 42.267287 -116.516069 336 34060ft 435kts
05-Oct-18 21:05 42.361984 -116.561540 336 34059ft 435kts
05-Oct-18 21:06 42.475418 -116.616197 336 34059ft 435kts
05-Oct-18 21:07 42.588841 -116.671079 335 34066ft 435kts
05-Oct-18 21:08 42.702400 -116.726307 335 34064ft 434kts
05-Oct-18 21:09 42.815390 -116.781469 335 34056ft 434kts
05-Oct-18 21:10 42.929213 -116.837244 335 34056ft 436kts
05-Oct-18 21:11 43.043975 -116.893712 335 34057ft 443kts
05-Oct-18 21:12 43.159129 -116.950565 335 34061ft 440kts
05-Oct-18 21:13 43.273598 -117.007307 335 34064ft 439kts
05-Oct-18 21:14 43.388013 -117.064245 335 34063ft 437kts
05-Oct-18 21:15 43.501639 -117.121014 335 34063ft 436kts
05-Oct-18 21:16 43.615322 -117.178040 335 34068ft 436kts
05-Oct-18 21:17 43.728995 -117.235291 335 34070ft 436kts
05-Oct-18 21:18 43.841416 -117.292134 335 34070ft 436kts
05-Oct-18 21:19 43.955100 -117.349848 335 34070ft 436kts
05-Oct-18 21:20 44.068447 -117.407622 335 34069ft 436kts
05-Oct-18 21:21 44.181726 -117.465600 335 34069ft 436kts
05-Oct-18 21:22 44.295427 -117.524033 335 34051ft 436kts
05-Oct-18 21:23 44.408524 -117.582401 335 34033ft 436kts
05-Oct-18 21:24 44.521506 -117.640960 335 34031ft 436kts
05-Oct-18 21:25 44.634447 -117.699818 334 34038ft 436kts
05-Oct-18 21:26 44.747666 -117.759079 334 34038ft 435kts
05-Oct-18 21:27 44.858922 -117.824182 324 34051ft 428kts
05-Oct-18 21:28 44.958294 -117.915177 322 34037ft 428kts
05-Oct-18 21:29 45.058379 -118.007160 322 34043ft 433kts
05-Oct-18 21:30 45.159406 -118.100005 323 34044ft 438kts
05-Oct-18 21:31 45.261109 -118.193425 323 34043ft 436kts
05-Oct-18 21:32 45.362706 -118.286684 323 34044ft 437kts
05-Oct-18 21:33 45.464694 -118.380237 323 34034ft 437kts
05-Oct-18 21:34 45.566560 -118.473619 323 34016ft 437kts
05-Oct-18 21:35 45.670447 -118.568789 323 33801ft 452kts
05-Oct-18 21:36 45.771231 -118.661019 323 31074ft 445kts
05-Oct-18 21:37 45.876314 -118.757215 323 28327ft 456kts
05-Oct-18 21:38 45.983314 -118.855028 324 25575ft 461kts
05-Oct-18 21:39 46.091390 -118.953789 324 24034ft 464kts
05-Oct-18 21:40 46.190939 -119.044587 324 24035ft 405kts
05-Oct-18 21:41 46.285791 -119.130211 324 24033ft 405kts
05-Oct-18 21:42 46.380740 -119.216543 324 24029ft 405kts
05-Oct-18 21:43 46.475772 -119.302937 324 24025ft 405kts
05-Oct-18 21:44 46.570753 -119.389303 324 23154ft 401kts
05-Oct-18 21:45 46.663977 -119.473845 325 21631ft 391kts
05-Oct-18 21:46 46.755114 -119.556367 325 19946ft 384kts
05-Oct-18 21:47 46.844057 -119.636708 325 17915ft 371kts
05-Oct-18 21:48 46.928156 -119.718210 322 15924ft 360kts
05-Oct-18 21:49 47.009176 -119.801956 322 13995ft 354kts
05-Oct-18 21:50 47.088815 -119.888204 322 13817ft 362kts
05-Oct-18 21:51 47.164810 -119.971186 322 12153ft 314kts
05-Oct-18 21:52 47.230581 -120.043310 322 10528ft 286kts
05-Oct-18 21:53 47.294068 -120.113365 323 8961ft 289kts
05-Oct-18 21:54 47.357042 -120.183219 323 7982ft 277kts
05-Oct-18 21:55 47.410299 -120.261297 287 7996ft 276kts
05-Oct-18 21:56 47.413653 -120.374529 270 7981ft 276kts
05-Oct-18 21:57 47.412742 -120.487259 269 9007ft 278kts
05-Oct-18 21:58 47.411703 -120.602042 270 11387ft 289kts
05-Oct-18 21:59 47.460099 -120.680561 2 11591ft 290kts
05-Oct-18 22:00 47.515899 -120.645240 15 11076ft 287kts
05-Oct-18 22:01 47.578472 -120.590320 53 9816ft 255kts
05-Oct-18 22:02 47.584028 -120.496388 104 8456ft 233kts
05-Oct-18 22:03 47.551000 -120.425398 141 7058ft 211kts
05-Oct-18 22:04 47.508997 -120.366543 134 6316ft 205kts
05-Oct-18 22:05 47.472889 -120.313485 135 4664ft 173kts
05-Oct-18 22:06 47.439632 -120.267018 135 2775ft 153kts
05-Oct-18 22:07 47.410119 -120.223632 134 1441ft 142kts
05-Oct-18 22:08 47.398417 -120.206478 135 1222ft 0kts

Navigation Log

Ident Type
Flight plan parsing failed, navigation log unavailable